Zia Pueblo, New Mexico
Current Conditions -  °F | °C
As of 5:55 AM on Monday 22 Dec 2014 (Local Time) from KAEG Reporting Station
Clear Clear  
Wind Chill:   Ceiling: Unl
Heat Index:   Visibility: 10mi
Dew Point: -1°   Wind: 13mph
Humidity: 70%   Direction: 260°W
Pressure: 29.91"   Gusts: NA
Location:  35.5626°N, 106.824°W
Report Text: KAEG 221255Z 26011KT 10SM SKC 04/M01 A2991
Loading
Personal Weather Stations






























Interactive Weather Map New forecast layout! Learn more

10-Day Weather Forecast

Advertisements
Track Severe Weather on mobile